createdAt,value
2023-05-09T00:02:17.927Z,99.90
2023-05-09T00:04:46.220Z,99.90
2023-05-09T00:07:14.404Z,99.90
2023-05-09T00:09:42.571Z,99.90
2023-05-09T00:12:12.161Z,99.90
2023-05-09T00:14:41.749Z,99.90
2023-05-09T00:17:09.968Z,99.90
2023-05-09T00:19:38.193Z,99.90
2023-05-09T00:22:06.378Z,99.90
2023-05-09T00:24:34.518Z,99.90
2023-05-09T00:27:02.806Z,99.90
2023-05-09T00:29:30.953Z,99.90
2023-05-09T00:32:00.553Z,99.90
2023-05-09T00:34:28.725Z,99.90
2023-05-09T00:36:56.904Z,99.90
2023-05-09T00:39:25.152Z,99.90
2023-05-09T00:41:53.608Z,99.90
2023-05-09T00:44:21.770Z,99.90
2023-05-09T00:46:50.215Z,99.90
2023-05-09T00:49:19.816Z,99.90
2023-05-09T00:51:49.186Z,99.90
2023-05-09T00:54:17.390Z,99.90
2023-05-09T00:56:46.236Z,99.90
2023-05-09T00:59:16.330Z,99.90
2023-05-09T01:01:45.907Z,99.90
2023-05-09T01:04:15.296Z,99.90
2023-05-09T01:06:53.337Z,99.90
2023-05-09T01:09:26.414Z,99.90
2023-05-09T01:12:04.808Z,99.90
2023-05-09T01:14:43.015Z,99.90
2023-05-09T01:17:18.962Z,99.90
2023-05-09T01:20:05.631Z,99.90
2023-05-09T01:22:37.787Z,99.90
2023-05-09T01:25:37.771Z,99.90
2023-05-09T01:28:14.879Z,99.90
2023-05-09T01:30:47.849Z,99.90
2023-05-09T01:33:20.332Z,99.90
2023-05-09T01:35:53.390Z,99.90
2023-05-09T01:38:24.930Z,99.90
2023-05-09T01:40:56.132Z,99.90
2023-05-09T01:43:27.142Z,99.90
2023-05-09T01:45:57.334Z,99.90
2023-05-09T01:48:27.293Z,99.90
2023-05-09T01:50:56.626Z,99.90
2023-05-09T01:53:27.637Z,99.90
2023-05-09T01:55:58.043Z,99.90
2023-05-09T01:58:28.091Z,99.90
2023-05-09T02:00:57.917Z,99.90
2023-05-09T02:03:26.977Z,99.90
2023-05-09T02:05:57.566Z,99.90
2023-05-09T02:08:26.332Z,99.90
2023-05-09T02:10:54.623Z,99.90
2023-05-09T02:13:22.923Z,99.90
2023-05-09T02:15:51.384Z,99.90
2023-05-09T02:18:21.854Z,99.90
2023-05-09T02:20:50.165Z,99.90
2023-05-09T02:23:18.393Z,99.90
2023-05-09T02:25:47.147Z,99.90
2023-05-09T02:28:16.210Z,99.90
2023-05-09T02:30:46.804Z,99.90
2023-05-09T02:33:15.853Z,99.90
2023-05-09T02:35:47.592Z,99.90
2023-05-09T02:38:16.791Z,99.90
2023-05-09T02:40:46.000Z,99.90
2023-05-09T02:43:15.166Z,99.90
2023-05-09T02:45:43.882Z,99.90
2023-05-09T02:48:12.167Z,99.90
2023-05-09T02:50:42.896Z,99.90
2023-05-09T02:53:12.754Z,99.90
2023-05-09T02:55:40.940Z,99.90
2023-05-09T02:58:14.184Z,99.90
2023-05-09T03:00:43.734Z,99.90
2023-05-09T03:03:12.080Z,99.90
2023-05-09T03:05:40.284Z,99.90
2023-05-09T03:08:08.432Z,99.90
2023-05-09T03:10:37.927Z,99.90
2023-05-09T03:13:06.143Z,99.90
2023-05-09T03:15:34.345Z,99.90
2023-05-09T03:18:02.518Z,99.90
2023-05-09T03:20:30.778Z,99.90
2023-05-09T03:22:58.942Z,99.90
2023-05-09T03:25:27.293Z,99.90
2023-05-09T03:27:56.840Z,99.90
2023-05-09T03:30:26.506Z,99.90
2023-05-09T03:32:54.692Z,99.90
2023-05-09T03:35:23.209Z,99.90
2023-05-09T03:37:51.367Z,99.90
2023-05-09T03:40:19.573Z,99.90
2023-05-09T03:42:47.895Z,99.90
2023-05-09T03:45:17.429Z,99.90
2023-05-09T03:47:46.286Z,99.90
2023-05-09T03:50:14.507Z,99.90
2023-05-09T03:52:42.661Z,99.90
2023-05-09T03:55:12.145Z,99.90
2023-05-09T03:57:40.608Z,99.90
2023-05-09T04:00:10.454Z,99.90
2023-05-09T04:02:40.151Z,99.90
2023-05-09T04:05:08.830Z,99.90
2023-05-09T04:07:36.995Z,99.90
2023-05-09T04:10:05.445Z,99.90
2023-05-09T04:12:33.643Z,99.90
2023-05-09T04:15:02.080Z,99.90
2023-05-09T04:17:30.245Z,99.90
2023-05-09T04:19:59.821Z,99.90
2023-05-09T04:22:27.964Z,99.90
2023-05-09T04:24:56.306Z,99.90
2023-05-09T04:27:24.598Z,99.90
2023-05-09T04:29:53.807Z,99.90
2023-05-09T04:32:23.330Z,99.90
2023-05-09T04:34:51.521Z,99.90
2023-05-09T04:37:21.051Z,99.90
2023-05-09T04:39:49.213Z,99.90
2023-05-09T04:42:17.357Z,99.90
2023-05-09T04:44:45.537Z,99.90
2023-05-09T04:47:13.730Z,99.90
2023-05-09T04:49:42.012Z,99.90
2023-05-09T04:52:10.156Z,99.90
2023-05-09T04:54:39.677Z,99.90
2023-05-09T04:57:17.417Z,99.90
2023-05-09T04:59:46.922Z,99.90
2023-05-09T05:02:15.093Z,99.90
2023-05-09T05:04:43.279Z,99.90
2023-05-09T05:07:11.485Z,99.90
2023-05-09T05:09:41.018Z,99.90
2023-05-09T05:12:09.885Z,99.90
2023-05-09T05:14:38.312Z,99.90
2023-05-09T05:17:06.522Z,99.90
2023-05-09T05:19:34.695Z,99.90
2023-05-09T05:22:02.969Z,99.90
2023-05-09T05:24:31.120Z,99.90
2023-05-09T05:27:00.662Z,99.90
2023-05-09T05:29:28.829Z,99.90
2023-05-09T05:31:57.030Z,99.90
2023-05-09T05:34:25.262Z,99.90
2023-05-09T05:36:53.431Z,99.90
2023-05-09T05:39:21.563Z,99.90
2023-05-09T05:41:49.753Z,99.90
2023-05-09T05:44:19.276Z,99.90
2023-05-09T05:46:47.440Z,99.90
2023-05-09T05:49:15.656Z,99.90
2023-05-09T05:51:43.819Z,99.90
2023-05-09T05:54:12.007Z,99.90
2023-05-09T05:56:40.233Z,99.90
2023-05-09T05:59:08.414Z,99.90
2023-05-09T06:01:37.991Z,99.90
2023-05-09T06:04:06.387Z,99.50
2023-05-09T06:06:34.730Z,99.60
2023-05-09T06:09:02.969Z,99.80
2023-05-09T06:11:31.112Z,99.80
2023-05-09T06:13:59.244Z,99.40
2023-05-09T06:16:27.538Z,99.90
2023-05-09T06:18:57.121Z,99.10
2023-05-09T06:21:25.298Z,99.40
2023-05-09T06:26:24.493Z,99.90
2023-05-09T06:28:52.666Z,98.70
2023-05-09T06:31:21.668Z,97.50
2023-05-09T06:33:50.103Z,97.80
2023-05-09T06:36:19.620Z,97.00
2023-05-09T06:38:47.828Z,96.10
2023-05-09T06:41:15.999Z,96.40
2023-05-09T06:43:44.172Z,95.60
2023-05-09T06:46:12.381Z,95.80
2023-05-09T06:48:40.542Z,95.70
2023-05-09T06:51:09.313Z,95.00
2023-05-09T06:53:38.908Z,95.20
2023-05-09T06:56:07.428Z,91.50
2023-05-09T06:58:36.352Z,91.50
2023-05-09T07:01:05.017Z,92.20
2023-05-09T07:03:33.203Z,91.90
2023-05-09T07:06:01.339Z,90.70
2023-05-09T07:08:29.553Z,89.70
2023-05-09T07:10:59.607Z,87.20
2023-05-09T07:13:27.759Z,88.20
2023-05-09T07:15:56.124Z,84.30
2023-05-09T07:18:24.329Z,81.00
2023-05-09T07:20:52.458Z,81.70
2023-05-09T07:23:20.623Z,80.50
2023-05-09T07:25:48.759Z,75.20
2023-05-09T07:28:19.129Z,73.90
2023-05-09T07:30:47.258Z,75.30
2023-05-09T07:33:15.396Z,76.80
2023-05-09T07:35:43.557Z,69.70
2023-05-09T07:38:11.888Z,66.80
2023-05-09T07:40:40.011Z,65.30
2023-05-09T07:43:08.238Z,65.60
2023-05-09T07:45:37.897Z,60.60
2023-05-09T07:48:06.862Z,59.50
2023-05-09T07:50:35.209Z,59.90
2023-05-09T07:53:03.349Z,57.50
2023-05-09T07:55:31.496Z,51.70
2023-05-09T07:57:59.624Z,47.60
2023-05-09T08:00:27.904Z,46.30
2023-05-09T08:02:57.575Z,47.10
2023-05-09T08:05:25.798Z,47.70
2023-05-09T08:07:54.039Z,46.00
2023-05-09T08:10:23.564Z,47.80
2023-05-09T08:12:52.345Z,44.00
2023-05-09T08:15:20.615Z,41.40
2023-05-09T08:17:48.805Z,43.60
2023-05-09T08:20:18.470Z,42.30
2023-05-09T08:22:46.618Z,43.20
2023-05-09T08:25:16.710Z,42.60
2023-05-09T08:27:45.193Z,42.60
2023-05-09T08:30:14.544Z,43.30
2023-05-09T08:32:42.723Z,42.60
2023-05-09T08:35:11.013Z,44.00
2023-05-09T08:37:41.024Z,44.20
2023-05-09T08:40:10.407Z,43.70
2023-05-09T08:42:40.159Z,43.00
2023-05-09T08:45:11.694Z,41.50
2023-05-09T08:47:40.734Z,39.30
2023-05-09T08:50:10.199Z,39.20
2023-05-09T08:52:38.649Z,37.40
2023-05-09T08:55:09.079Z,38.60
2023-05-09T08:57:37.326Z,38.10
2023-05-09T09:00:07.139Z,38.60
2023-05-09T09:02:38.160Z,36.70
2023-05-09T09:07:38.069Z,37.30
2023-05-09T09:10:11.449Z,36.50
2023-05-09T09:12:41.040Z,35.20
2023-05-09T09:15:16.132Z,36.20
2023-05-09T09:17:47.511Z,36.40
2023-05-09T09:20:17.533Z,36.80
2023-05-09T09:22:48.979Z,34.70
2023-05-09T09:25:18.666Z,35.70
2023-05-09T09:27:46.802Z,37.30
2023-05-09T09:30:16.222Z,38.20
2023-05-09T09:32:44.611Z,38.50
2023-05-09T09:35:13.526Z,36.10
2023-05-09T09:37:43.512Z,35.60
2023-05-09T09:40:14.475Z,33.80
2023-05-09T09:42:45.819Z,34.80
2023-05-09T09:45:15.377Z,35.10
2023-05-09T09:47:45.378Z,32.80
2023-05-09T09:50:15.627Z,33.50
2023-05-09T09:52:45.479Z,34.50
2023-05-09T09:55:14.226Z,32.90
2023-05-09T09:57:45.641Z,34.60
2023-05-09T10:00:17.261Z,34.10
2023-05-09T10:02:50.366Z,33.30
2023-05-09T10:05:22.590Z,33.40
2023-05-09T10:07:58.584Z,33.40
2023-05-09T10:10:31.281Z,32.80
2023-05-09T10:13:00.928Z,30.50
2023-05-09T10:15:41.505Z,31.40
2023-05-09T10:18:21.661Z,32.30
2023-05-09T10:20:50.176Z,31.90
2023-05-09T10:23:20.409Z,32.00
2023-05-09T10:25:54.445Z,31.60
2023-05-09T10:28:28.865Z,31.10
2023-05-09T10:31:06.382Z,33.10
2023-05-09T10:33:44.759Z,31.80
2023-05-09T10:36:14.295Z,31.70
2023-05-09T10:38:44.049Z,30.10
2023-05-09T10:41:12.681Z,30.20
2023-05-09T10:43:41.235Z,29.80
2023-05-09T10:46:11.173Z,30.00
2023-05-09T10:48:40.210Z,31.20
2023-05-09T10:51:10.382Z,32.70
2023-05-09T10:53:45.726Z,30.00
2023-05-09T10:56:25.058Z,32.00
2023-05-09T10:58:53.226Z,28.90
2023-05-09T11:01:35.405Z,30.50
2023-05-09T11:04:10.109Z,31.80
2023-05-09T11:06:46.672Z,31.00
2023-05-09T11:09:29.453Z,30.50
2023-05-09T11:11:59.650Z,32.00
2023-05-09T11:14:31.854Z,30.20
2023-05-09T11:17:03.031Z,30.10
2023-05-09T11:19:38.750Z,31.10
2023-05-09T11:22:14.607Z,29.70
2023-05-09T11:24:47.358Z,30.30
2023-05-09T11:27:21.152Z,32.70
2023-05-09T11:29:52.594Z,31.70
2023-05-09T11:32:23.538Z,30.90
2023-05-09T11:34:51.738Z,31.80
2023-05-09T11:37:20.287Z,31.20
2023-05-09T11:39:59.220Z,30.60
2023-05-09T11:42:29.047Z,31.40
2023-05-09T11:44:58.423Z,33.00
2023-05-09T11:47:28.977Z,31.50
2023-05-09T11:49:57.364Z,32.80
2023-05-09T11:52:25.818Z,32.00
2023-05-09T11:54:54.102Z,32.60
2023-05-09T11:57:22.330Z,34.50
2023-05-09T11:59:50.555Z,32.10
2023-05-09T12:02:18.891Z,31.10
2023-05-09T12:04:48.715Z,32.50
2023-05-09T12:07:18.505Z,29.40
2023-05-09T12:09:46.698Z,29.60
2023-05-09T12:12:15.503Z,30.60
2023-05-09T12:14:43.702Z,29.70
2023-05-09T12:17:11.990Z,29.50
2023-05-09T12:19:40.174Z,29.60
2023-05-09T12:22:10.046Z,30.00
2023-05-09T12:24:38.443Z,29.60
2023-05-09T12:27:08.009Z,29.30
2023-05-09T12:29:36.656Z,30.50
2023-05-09T12:32:05.008Z,30.00
2023-05-09T12:34:33.540Z,30.30
2023-05-09T12:37:03.700Z,30.50
2023-05-09T12:39:33.349Z,29.00
2023-05-09T12:42:02.266Z,29.60
2023-05-09T12:44:30.636Z,30.30
2023-05-09T12:47:00.094Z,29.00
2023-05-09T12:49:28.827Z,28.70
2023-05-09T12:51:58.695Z,27.50
2023-05-09T12:54:28.043Z,28.00
2023-05-09T12:56:59.679Z,28.60
2023-05-09T12:59:29.368Z,28.80
2023-05-09T13:01:58.948Z,29.30
2023-05-09T13:04:29.487Z,27.90
2023-05-09T13:06:59.960Z,29.70
2023-05-09T13:09:28.676Z,29.00
2023-05-09T13:11:58.226Z,28.50
2023-05-09T13:14:26.906Z,28.10
2023-05-09T13:16:55.544Z,27.30
2023-05-09T13:19:23.729Z,28.90
2023-05-09T13:21:52.798Z,27.70
2023-05-09T13:24:20.982Z,28.10
2023-05-09T13:26:49.109Z,28.60
2023-05-09T13:29:18.644Z,26.80
2023-05-09T13:31:46.810Z,28.20
2023-05-09T13:34:15.013Z,27.50
2023-05-09T13:36:43.159Z,26.50
2023-05-09T13:39:11.346Z,26.90
2023-05-09T13:41:39.519Z,27.30
2023-05-09T13:44:07.661Z,27.80
2023-05-09T13:46:37.343Z,28.20
2023-05-09T13:49:05.939Z,28.30
2023-05-09T13:51:34.635Z,27.10
2023-05-09T13:54:03.715Z,28.40
2023-05-09T13:56:32.089Z,28.00
2023-05-09T13:59:00.262Z,27.70
2023-05-09T14:01:28.753Z,27.70
2023-05-09T14:03:58.429Z,27.00
2023-05-09T14:06:26.712Z,27.50
2023-05-09T14:08:54.953Z,28.30
2023-05-09T14:11:23.504Z,29.60
2023-05-09T14:13:52.641Z,27.80
2023-05-09T14:16:20.970Z,27.70
2023-05-09T14:18:49.412Z,26.80
2023-05-09T14:21:19.017Z,28.00
2023-05-09T14:23:47.155Z,27.00
2023-05-09T14:26:15.316Z,27.30
2023-05-09T14:28:44.295Z,27.30
2023-05-09T14:31:13.383Z,27.50
2023-05-09T14:33:41.582Z,28.10
2023-05-09T14:36:09.904Z,27.90
2023-05-09T14:38:40.539Z,26.50
2023-05-09T14:41:09.028Z,26.80
2023-05-09T14:43:37.182Z,27.60
2023-05-09T14:46:05.542Z,26.10
2023-05-09T14:48:33.898Z,26.00
2023-05-09T14:51:02.310Z,26.50
2023-05-09T14:53:31.245Z,27.70
2023-05-09T14:56:01.617Z,26.90
2023-05-09T14:58:34.194Z,26.70
2023-05-09T15:01:02.579Z,27.60
2023-05-09T15:03:30.991Z,27.70
2023-05-09T15:05:59.781Z,26.10
2023-05-09T15:08:28.355Z,27.90
2023-05-09T15:10:57.525Z,26.20
2023-05-09T15:13:27.147Z,25.90
2023-05-09T15:15:55.300Z,25.80
2023-05-09T15:18:26.894Z,26.10
2023-05-09T15:20:55.200Z,26.20
2023-05-09T15:23:23.768Z,26.40
2023-05-09T15:25:52.071Z,25.90
2023-05-09T15:28:20.210Z,25.30
2023-05-09T15:30:49.768Z,26.10
2023-05-09T15:33:18.497Z,24.60
2023-05-09T15:35:46.849Z,25.10
2023-05-09T15:38:15.451Z,24.80
2023-05-09T15:40:43.612Z,24.80
2023-05-09T15:43:13.002Z,25.20
2023-05-09T15:45:46.520Z,25.10
2023-05-09T15:48:17.147Z,25.20
2023-05-09T15:50:45.753Z,26.40
2023-05-09T15:53:15.609Z,26.70
2023-05-09T15:55:44.662Z,25.20
2023-05-09T15:58:14.103Z,24.00
2023-05-09T16:00:42.294Z,24.00
2023-05-09T16:03:10.627Z,25.30
2023-05-09T16:05:41.335Z,24.60
2023-05-09T16:08:09.602Z,25.20
2023-05-09T16:10:37.821Z,25.70
2023-05-09T16:13:06.120Z,25.70
2023-05-09T16:15:34.303Z,25.70
2023-05-09T16:18:02.492Z,25.50
2023-05-09T16:20:30.700Z,26.60
2023-05-09T16:23:00.354Z,26.30
2023-05-09T16:25:28.558Z,26.20
2023-05-09T16:27:56.776Z,26.20
2023-05-09T16:30:25.049Z,26.10
2023-05-09T16:32:53.619Z,26.30
2023-05-09T16:35:21.924Z,26.70
2023-05-09T16:37:50.096Z,27.40
2023-05-09T16:40:20.189Z,26.50
2023-05-09T16:42:48.334Z,26.20
2023-05-09T16:45:16.968Z,26.10
2023-05-09T16:47:45.161Z,26.50
2023-05-09T16:50:13.462Z,27.40
2023-05-09T16:52:41.739Z,27.50
2023-05-09T16:55:10.380Z,27.20
2023-05-09T16:57:39.932Z,27.30
2023-05-09T17:00:09.848Z,27.20
2023-05-09T17:02:38.239Z,27.40
2023-05-09T17:05:07.406Z,27.90
2023-05-09T17:07:35.585Z,28.40
2023-05-09T17:10:03.953Z,28.20
2023-05-09T17:12:32.144Z,27.30
2023-05-09T17:15:01.746Z,27.70
2023-05-09T17:17:30.113Z,28.30
2023-05-09T17:19:58.828Z,28.50
2023-05-09T17:22:27.053Z,28.00
2023-05-09T17:24:55.291Z,28.30
2023-05-09T17:27:23.493Z,28.00
2023-05-09T17:29:51.653Z,28.00
2023-05-09T17:32:21.254Z,28.00
2023-05-09T17:34:49.452Z,27.50
2023-05-09T17:37:18.082Z,27.80
2023-05-09T17:39:47.080Z,28.00
2023-05-09T17:42:15.354Z,28.60
2023-05-09T17:44:44.555Z,28.90
2023-05-09T17:47:14.316Z,29.20
2023-05-09T17:49:45.312Z,29.10
2023-05-09T17:52:13.535Z,29.20
2023-05-09T17:54:42.026Z,29.00
2023-05-09T17:57:10.192Z,30.20
2023-05-09T17:59:40.599Z,30.10
2023-05-09T18:02:08.909Z,30.40
2023-05-09T18:04:37.086Z,30.60
2023-05-09T18:07:06.668Z,31.60
2023-05-09T18:09:34.815Z,31.50
2023-05-09T18:12:03.017Z,32.40
2023-05-09T18:14:31.191Z,32.90
2023-05-09T18:16:59.340Z,33.40
2023-05-09T18:19:27.497Z,33.80
2023-05-09T18:21:55.657Z,34.60
2023-05-09T18:24:25.292Z,35.00
2023-05-09T18:26:53.441Z,35.60
2023-05-09T18:29:21.640Z,36.20
2023-05-09T18:31:50.582Z,35.30
2023-05-09T18:34:18.980Z,36.10
2023-05-09T18:36:47.298Z,36.30
2023-05-09T18:39:15.700Z,36.80
2023-05-09T18:41:45.499Z,36.50
2023-05-09T18:44:13.704Z,37.00
2023-05-09T18:46:42.065Z,37.30
2023-05-09T18:49:11.110Z,37.00
2023-05-09T18:51:39.239Z,37.60
2023-05-09T18:54:07.938Z,38.90
2023-05-09T18:56:39.694Z,38.10
2023-05-09T18:59:12.019Z,38.60
2023-05-09T19:01:42.445Z,38.50
2023-05-09T19:04:10.630Z,38.90
2023-05-09T19:06:39.013Z,39.70
2023-05-09T19:09:07.295Z,39.80
2023-05-09T19:11:35.894Z,40.00
2023-05-09T19:14:04.116Z,40.30
2023-05-09T19:16:35.294Z,39.90
2023-05-09T19:19:03.687Z,40.20
2023-05-09T19:21:31.882Z,40.40
2023-05-09T19:24:00.360Z,39.90
2023-05-09T19:26:28.512Z,40.40
2023-05-09T19:28:57.006Z,40.50
2023-05-09T19:31:25.733Z,41.50
2023-05-09T19:33:56.924Z,41.40
2023-05-09T19:36:25.296Z,41.40
2023-05-09T19:38:53.855Z,41.70
2023-05-09T19:41:22.632Z,41.80
2023-05-09T19:43:51.378Z,42.00
2023-05-09T19:46:19.602Z,43.00
2023-05-09T19:48:47.758Z,42.40
2023-05-09T19:51:17.269Z,42.80
2023-05-09T19:53:46.891Z,43.30
2023-05-09T19:56:15.180Z,43.60
2023-05-09T19:58:43.380Z,43.90
2023-05-09T20:01:11.624Z,44.00
2023-05-09T20:03:42.188Z,44.10
2023-05-09T20:06:10.798Z,44.20
2023-05-09T20:08:40.409Z,44.30
2023-05-09T20:11:08.578Z,44.30
2023-05-09T20:13:36.733Z,45.00
2023-05-09T20:16:05.074Z,44.90
2023-05-09T20:18:33.937Z,45.50
2023-05-09T20:21:02.854Z,45.90
2023-05-09T20:23:31.653Z,47.00
2023-05-09T20:26:01.506Z,48.10
2023-05-09T20:28:29.694Z,48.00
2023-05-09T20:30:58.112Z,48.20
2023-05-09T20:33:26.308Z,47.80
2023-05-09T20:35:55.290Z,48.30
2023-05-09T20:38:23.610Z,48.50
2023-05-09T20:40:51.834Z,48.40
2023-05-09T20:43:21.485Z,49.30
2023-05-09T20:45:50.191Z,50.10
2023-05-09T20:48:19.226Z,50.10
2023-05-09T20:50:47.562Z,50.20
2023-05-09T20:53:16.770Z,49.70
2023-05-09T20:55:44.893Z,50.60
2023-05-09T20:58:14.774Z,50.60
2023-05-09T21:00:46.824Z,52.00
2023-05-09T21:03:15.237Z,51.90
2023-05-09T21:05:43.514Z,52.10
2023-05-09T21:08:11.712Z,52.80
2023-05-09T21:10:39.845Z,51.70
2023-05-09T21:13:08.161Z,52.60
2023-05-09T21:15:36.322Z,54.20
2023-05-09T21:18:06.275Z,54.80
2023-05-09T21:20:34.448Z,54.20
2023-05-09T21:23:02.629Z,54.70
2023-05-09T21:25:30.853Z,53.90
2023-05-09T21:27:58.982Z,55.20
2023-05-09T21:30:27.140Z,56.00
2023-05-09T21:32:55.489Z,56.60
2023-05-09T21:35:25.249Z,57.90
2023-05-09T21:37:53.470Z,57.00
2023-05-09T21:40:21.621Z,57.70
2023-05-09T21:42:49.843Z,58.40
2023-05-09T21:45:18.496Z,58.50
2023-05-09T21:47:46.760Z,58.90
2023-05-09T21:50:15.126Z,59.60
2023-05-09T21:52:44.846Z,60.40
2023-05-09T21:55:13.104Z,60.50
2023-05-09T21:57:44.168Z,60.20
2023-05-09T22:00:15.558Z,60.60
2023-05-09T22:02:44.136Z,60.50
2023-05-09T22:05:12.780Z,61.10
2023-05-09T22:07:40.959Z,62.10
2023-05-09T22:10:11.517Z,62.70
2023-05-09T22:12:39.760Z,62.60
2023-05-09T22:15:09.110Z,63.00
2023-05-09T22:17:37.502Z,64.00
2023-05-09T22:20:06.601Z,65.50
2023-05-09T22:22:34.765Z,64.20
2023-05-09T22:25:03.790Z,65.70
2023-05-09T22:27:33.320Z,65.00
2023-05-09T22:30:01.637Z,66.30
2023-05-09T22:32:29.924Z,65.50
2023-05-09T22:34:58.040Z,67.00
2023-05-09T22:37:26.236Z,67.20
2023-05-09T22:39:54.352Z,68.80
2023-05-09T22:42:22.499Z,67.50
2023-05-09T22:44:52.846Z,68.00
2023-05-09T22:47:20.991Z,70.70
2023-05-09T22:49:51.008Z,69.20
2023-05-09T22:52:19.301Z,69.00
2023-05-09T22:54:47.663Z,68.20
2023-05-09T22:57:17.776Z,69.00
2023-05-09T22:59:46.153Z,69.60
2023-05-09T23:02:15.700Z,70.80
2023-05-09T23:04:43.877Z,68.80
2023-05-09T23:07:12.047Z,70.20
2023-05-09T23:09:40.902Z,70.00
2023-05-09T23:12:10.788Z,71.50
2023-05-09T23:14:39.230Z,72.00
2023-05-09T23:17:07.403Z,69.00
2023-05-09T23:19:37.280Z,71.80
2023-05-09T23:22:05.461Z,70.00
2023-05-09T23:24:33.626Z,71.40
2023-05-09T23:27:02.480Z,72.60
2023-05-09T23:29:30.642Z,72.10
2023-05-09T23:31:58.791Z,71.40
2023-05-09T23:34:26.966Z,71.80
2023-05-09T23:36:56.525Z,73.70
2023-05-09T23:39:24.688Z,72.00
2023-05-09T23:41:53.074Z,72.60
2023-05-09T23:44:21.204Z,72.40
2023-05-09T23:46:49.452Z,74.80
2023-05-09T23:49:17.698Z,73.40
2023-05-09T23:51:45.828Z,74.60
2023-05-09T23:54:16.481Z,73.40
2023-05-09T23:56:44.616Z,74.40
2023-05-09T23:59:12.793Z,74.80
